Terminal Aerodrome Forecast
Issued by NWS

Home | Current Version | Previous Version | Text Only | Print | Product List | Glossary On
Versions: 1 2 3 4 5 6 7 8 9 10 11 12 13 14 15 16 17 18 19 20 21 22 23 24
000
FTUS44 KEWX 011405 AAA
TAFSSF
TAF AMD
KSSF 011405Z 0114/0212 04010KT P6SM BKN025
     FM011700 05012G22KT P6SM BKN025 PROB30 0201/0206 4SM TSRA BR
      OVC025CB
     FM020600 02015G25KT P6SM OVC025=

USA.gov is the U.S. government's official web portal to all federal, state and local government web resources and services.